sensor_id;sensor_type;location;lat;lon;timestamp;P1;durP1;ratioP1;P2;durP2;ratioP2
20557;SDS011;10437;48.156;11.530;2023-02-28T00:00:13;4.20;;;2.50;;
20557;SDS011;10437;48.156;11.530;2023-02-28T00:02:41;3.70;;;2.20;;
20557;SDS011;10437;48.156;11.530;2023-02-28T00:05:10;5.63;;;2.70;;
20557;SDS011;10437;48.156;11.530;2023-02-28T00:07:38;4.93;;;2.03;;
20557;SDS011;10437;48.156;11.530;2023-02-28T00:10:07;10.20;;;2.37;;
20557;SDS011;10437;48.156;11.530;2023-02-28T00:12:35;5.77;;;2.10;;
20557;SDS011;10437;48.156;11.530;2023-02-28T00:15:05;5.27;;;2.57;;
20557;SDS011;10437;48.156;11.530;2023-02-28T00:17:32;6.77;;;2.40;;
20557;SDS011;10437;48.156;11.530;2023-02-28T00:19:59;3.67;;;2.40;;
20557;SDS011;10437;48.156;11.530;2023-02-28T00:22:38;5.03;;;2.50;;
20557;SDS011;10437;48.156;11.530;2023-02-28T00:25:06;6.03;;;2.70;;
20557;SDS011;10437;48.156;11.530;2023-02-28T00:27:34;6.23;;;2.70;;
20557;SDS011;10437;48.156;11.530;2023-02-28T00:30:01;5.40;;;2.40;;
20557;SDS011;10437;48.156;11.530;2023-02-28T00:32:29;6.17;;;2.93;;
20557;SDS011;10437;48.156;11.530;2023-02-28T00:34:56;6.30;;;2.77;;
20557;SDS011;10437;48.156;11.530;2023-02-28T00:37:23;6.37;;;2.70;;
20557;SDS011;10437;48.156;11.530;2023-02-28T00:39:51;5.00;;;2.60;;
20557;SDS011;10437;48.156;11.530;2023-02-28T00:42:19;4.33;;;2.50;;
20557;SDS011;10437;48.156;11.530;2023-02-28T00:44:46;5.07;;;2.23;;
20557;SDS011;10437;48.156;11.530;2023-02-28T00:47:13;5.20;;;2.97;;
20557;SDS011;10437;48.156;11.530;2023-02-28T00:49:40;4.27;;;2.40;;
20557;SDS011;10437;48.156;11.530;2023-02-28T00:52:08;6.10;;;2.70;;
20557;SDS011;10437;48.156;11.530;2023-02-28T00:54:35;5.80;;;2.57;;
20557;SDS011;10437;48.156;11.530;2023-02-28T00:57:03;4.87;;;2.70;;
20557;SDS011;10437;48.156;11.530;2023-02-28T00:59:30;5.77;;;2.60;;
20557;SDS011;10437;48.156;11.530;2023-02-28T01:01:58;5.17;;;2.63;;
20557;SDS011;10437;48.156;11.530;2023-02-28T01:04:25;4.87;;;2.47;;
20557;SDS011;10437;48.156;11.530;2023-02-28T01:06:52;4.73;;;2.40;;
20557;SDS011;10437;48.156;11.530;2023-02-28T01:09:19;5.90;;;2.90;;
20557;SDS011;10437;48.156;11.530;2023-02-28T01:11:46;4.80;;;2.50;;
20557;SDS011;10437;48.156;11.530;2023-02-28T01:14:15;5.90;;;2.67;;
20557;SDS011;10437;48.156;11.530;2023-02-28T01:16:43;5.57;;;2.70;;
20557;SDS011;10437;48.156;11.530;2023-02-28T01:19:10;6.37;;;3.03;;
20557;SDS011;10437;48.156;11.530;2023-02-28T01:21:37;3.97;;;2.37;;
20557;SDS011;10437;48.156;11.530;2023-02-28T01:24:04;4.07;;;2.40;;
20557;SDS011;10437;48.156;11.530;2023-02-28T01:26:32;4.90;;;2.70;;
20557;SDS011;10437;48.156;11.530;2023-02-28T01:28:59;4.60;;;2.70;;
20557;SDS011;10437;48.156;11.530;2023-02-28T01:31:28;4.97;;;3.17;;
20557;SDS011;10437;48.156;11.530;2023-02-28T01:33:55;5.77;;;2.70;;
20557;SDS011;10437;48.156;11.530;2023-02-28T01:36:22;6.60;;;2.83;;
20557;SDS011;10437;48.156;11.530;2023-02-28T01:38:50;4.53;;;2.83;;
20557;SDS011;10437;48.156;11.530;2023-02-28T01:41:19;5.50;;;2.83;;
20557;SDS011;10437;48.156;11.530;2023-02-28T01:43:55;5.60;;;2.63;;
20557;SDS011;10437;48.156;11.530;2023-02-28T01:46:24;7.50;;;2.80;;
20557;SDS011;10437;48.156;11.530;2023-02-28T01:48:54;4.70;;;2.43;;
20557;SDS011;10437;48.156;11.530;2023-02-28T01:51:22;6.10;;;2.93;;
20557;SDS011;10437;48.156;11.530;2023-02-28T01:53:56;5.57;;;2.70;;
20557;SDS011;10437;48.156;11.530;2023-02-28T01:56:27;6.67;;;2.57;;
20557;SDS011;10437;48.156;11.530;2023-02-28T01:58:55;6.53;;;2.90;;
20557;SDS011;10437;48.156;11.530;2023-02-28T02:01:23;6.77;;;2.87;;
20557;SDS011;10437;48.156;11.530;2023-02-28T02:03:51;4.60;;;2.50;;
20557;SDS011;10437;48.156;11.530;2023-02-28T02:06:21;6.33;;;2.70;;
20557;SDS011;10437;48.156;11.530;2023-02-28T02:08:49;6.30;;;3.00;;
20557;SDS011;10437;48.156;11.530;2023-02-28T02:11:17;5.30;;;2.43;;
20557;SDS011;10437;48.156;11.530;2023-02-28T02:13:51;5.57;;;2.63;;
20557;SDS011;10437;48.156;11.530;2023-02-28T02:16:34;5.80;;;2.90;;
20557;SDS011;10437;48.156;11.530;2023-02-28T02:19:07;6.10;;;3.20;;
20557;SDS011;10437;48.156;11.530;2023-02-28T02:21:55;5.17;;;2.77;;
20557;SDS011;10437;48.156;11.530;2023-02-28T02:27:17;5.60;;;2.73;;
20557;SDS011;10437;48.156;11.530;2023-02-28T02:30:02;6.77;;;3.00;;
20557;SDS011;10437;48.156;11.530;2023-02-28T02:32:39;5.57;;;2.83;;
20557;SDS011;10437;48.156;11.530;2023-02-28T02:35:15;5.13;;;2.97;;
20557;SDS011;10437;48.156;11.530;2023-02-28T02:37:48;4.80;;;2.57;;
20557;SDS011;10437;48.156;11.530;2023-02-28T02:40:17;4.30;;;2.50;;
20557;SDS011;10437;48.156;11.530;2023-02-28T02:42:48;5.57;;;2.50;;
20557;SDS011;10437;48.156;11.530;2023-02-28T02:45:17;7.13;;;3.13;;
20557;SDS011;10437;48.156;11.530;2023-02-28T02:47:46;5.83;;;3.00;;
20557;SDS011;10437;48.156;11.530;2023-02-28T02:50:15;7.70;;;2.67;;
20557;SDS011;10437;48.156;11.530;2023-02-28T02:52:45;4.77;;;2.67;;
20557;SDS011;10437;48.156;11.530;2023-02-28T02:55:16;6.33;;;3.13;;
20557;SDS011;10437;48.156;11.530;2023-02-28T02:57:45;6.87;;;2.63;;
20557;SDS011;10437;48.156;11.530;2023-02-28T03:00:14;5.97;;;3.13;;
20557;SDS011;10437;48.156;11.530;2023-02-28T03:02:42;5.63;;;2.73;;
20557;SDS011;10437;48.156;11.530;2023-02-28T03:05:12;6.03;;;2.73;;
20557;SDS011;10437;48.156;11.530;2023-02-28T03:07:44;6.60;;;3.13;;
20557;SDS011;10437;48.156;11.530;2023-02-28T03:10:31;8.00;;;3.50;;
20557;SDS011;10437;48.156;11.530;2023-02-28T03:15:44;6.90;;;2.97;;
20557;SDS011;10437;48.156;11.530;2023-02-28T03:18:16;7.87;;;3.60;;
20557;SDS011;10437;48.156;11.530;2023-02-28T03:20:48;6.23;;;3.37;;
20557;SDS011;10437;48.156;11.530;2023-02-28T03:23:19;7.50;;;3.63;;
20557;SDS011;10437;48.156;11.530;2023-02-28T03:25:52;7.57;;;3.27;;
20557;SDS011;10437;48.156;11.530;2023-02-28T03:28:22;6.57;;;3.60;;
20557;SDS011;10437;48.156;11.530;2023-02-28T03:30:52;7.60;;;3.60;;
20557;SDS011;10437;48.156;11.530;2023-02-28T03:33:21;6.30;;;3.30;;
20557;SDS011;10437;48.156;11.530;2023-02-28T03:35:53;6.90;;;3.60;;
20557;SDS011;10437;48.156;11.530;2023-02-28T03:38:22;7.70;;;3.70;;
20557;SDS011;10437;48.156;11.530;2023-02-28T03:40:55;7.20;;;3.23;;
20557;SDS011;10437;48.156;11.530;2023-02-28T03:43:26;7.70;;;3.57;;
20557;SDS011;10437;48.156;11.530;2023-02-28T03:45:55;8.43;;;4.07;;
20557;SDS011;10437;48.156;11.530;2023-02-28T03:48:23;8.33;;;3.97;;
20557;SDS011;10437;48.156;11.530;2023-02-28T03:50:55;6.67;;;3.60;;
20557;SDS011;10437;48.156;11.530;2023-02-28T03:53:25;8.50;;;4.27;;
20557;SDS011;10437;48.156;11.530;2023-02-28T03:55:55;7.93;;;3.60;;
20557;SDS011;10437;48.156;11.530;2023-02-28T03:58:24;6.87;;;3.87;;
20557;SDS011;10437;48.156;11.530;2023-02-28T04:00:55;8.60;;;3.83;;
20557;SDS011;10437;48.156;11.530;2023-02-28T04:03:24;7.90;;;3.90;;
20557;SDS011;10437;48.156;11.530;2023-02-28T04:05:52;8.37;;;4.23;;
20557;SDS011;10437;48.156;11.530;2023-02-28T04:08:21;9.10;;;4.13;;
20557;SDS011;10437;48.156;11.530;2023-02-28T04:10:50;10.70;;;4.50;;
20557;SDS011;10437;48.156;11.530;2023-02-28T04:13:21;7.57;;;4.47;;
20557;SDS011;10437;48.156;11.530;2023-02-28T04:15:48;10.03;;;4.43;;
20557;SDS011;10437;48.156;11.530;2023-02-28T04:18:16;10.53;;;4.43;;
20557;SDS011;10437;48.156;11.530;2023-02-28T04:20:43;10.00;;;4.80;;
20557;SDS011;10437;48.156;11.530;2023-02-28T04:23:10;12.43;;;4.73;;
20557;SDS011;10437;48.156;11.530;2023-02-28T04:25:38;9.03;;;4.17;;
20557;SDS011;10437;48.156;11.530;2023-02-28T04:28:05;8.73;;;4.57;;
20557;SDS011;10437;48.156;11.530;2023-02-28T04:30:32;11.10;;;4.50;;
20557;SDS011;10437;48.156;11.530;2023-02-28T04:33:00;9.10;;;4.47;;
20557;SDS011;10437;48.156;11.530;2023-02-28T04:35:27;9.10;;;4.53;;
20557;SDS011;10437;48.156;11.530;2023-02-28T04:37:54;11.33;;;4.90;;
20557;SDS011;10437;48.156;11.530;2023-02-28T04:40:21;9.57;;;4.67;;
20557;SDS011;10437;48.156;11.530;2023-02-28T04:42:49;11.23;;;5.20;;
20557;SDS011;10437;48.156;11.530;2023-02-28T04:45:16;8.67;;;4.67;;
20557;SDS011;10437;48.156;11.530;2023-02-28T04:47:43;10.30;;;5.40;;
20557;SDS011;10437;48.156;11.530;2023-02-28T04:50:11;10.03;;;4.90;;
20557;SDS011;10437;48.156;11.530;2023-02-28T04:52:38;12.33;;;5.57;;
20557;SDS011;10437;48.156;11.530;2023-02-28T04:55:05;11.03;;;4.90;;
20557;SDS011;10437;48.156;11.530;2023-02-28T04:57:32;8.63;;;4.43;;
20557;SDS011;10437;48.156;11.530;2023-02-28T05:00:01;9.47;;;4.77;;
20557;SDS011;10437;48.156;11.530;2023-02-28T05:02:33;11.20;;;4.80;;
20557;SDS011;10437;48.156;11.530;2023-02-28T05:05:00;9.83;;;5.30;;
20557;SDS011;10437;48.156;11.530;2023-02-28T05:07:27;12.07;;;5.57;;
20557;SDS011;10437;48.156;11.530;2023-02-28T05:09:55;13.00;;;5.73;;
20557;SDS011;10437;48.156;11.530;2023-02-28T05:12:22;13.97;;;6.10;;
20557;SDS011;10437;48.156;11.530;2023-02-28T05:14:49;10.00;;;5.50;;
20557;SDS011;10437;48.156;11.530;2023-02-28T05:17:17;13.50;;;5.83;;
20557;SDS011;10437;48.156;11.530;2023-02-28T05:19:45;12.10;;;5.77;;
20557;SDS011;10437;48.156;11.530;2023-02-28T05:22:12;11.43;;;5.80;;
20557;SDS011;10437;48.156;11.530;2023-02-28T05:24:41;11.97;;;5.50;;
20557;SDS011;10437;48.156;11.530;2023-02-28T05:27:09;13.40;;;6.17;;
20557;SDS011;10437;48.156;11.530;2023-02-28T05:29:36;15.43;;;6.00;;
20557;SDS011;10437;48.156;11.530;2023-02-28T05:32:08;16.97;;;6.80;;
20557;SDS011;10437;48.156;11.530;2023-02-28T05:34:37;12.53;;;6.17;;
20557;SDS011;10437;48.156;11.530;2023-02-28T05:37:05;13.53;;;5.90;;
20557;SDS011;10437;48.156;11.530;2023-02-28T05:39:32;13.43;;;5.97;;
20557;SDS011;10437;48.156;11.530;2023-02-28T05:41:59;11.97;;;6.30;;
20557;SDS011;10437;48.156;11.530;2023-02-28T05:44:26;12.23;;;6.70;;
20557;SDS011;10437;48.156;11.530;2023-02-28T05:46:53;16.13;;;6.87;;
20557;SDS011;10437;48.156;11.530;2023-02-28T05:49:21;16.57;;;6.83;;
20557;SDS011;10437;48.156;11.530;2023-02-28T05:51:49;12.90;;;6.23;;
20557;SDS011;10437;48.156;11.530;2023-02-28T05:54:16;13.53;;;7.03;;
20557;SDS011;10437;48.156;11.530;2023-02-28T05:56:43;15.33;;;7.63;;
20557;SDS011;10437;48.156;11.530;2023-02-28T05:59:11;14.27;;;6.70;;
20557;SDS011;10437;48.156;11.530;2023-02-28T06:01:38;14.67;;;7.00;;
20557;SDS011;10437;48.156;11.530;2023-02-28T06:04:07;14.00;;;7.60;;
20557;SDS011;10437;48.156;11.530;2023-02-28T06:06:34;15.70;;;7.17;;
20557;SDS011;10437;48.156;11.530;2023-02-28T06:09:03;15.37;;;7.27;;
20557;SDS011;10437;48.156;11.530;2023-02-28T06:11:31;20.87;;;7.83;;
20557;SDS011;10437;48.156;11.530;2023-02-28T06:13:58;16.70;;;8.00;;
20557;SDS011;10437;48.156;11.530;2023-02-28T06:16:26;17.30;;;8.17;;
20557;SDS011;10437;48.156;11.530;2023-02-28T06:18:53;15.37;;;7.43;;
20557;SDS011;10437;48.156;11.530;2023-02-28T06:21:21;21.30;;;8.67;;
20557;SDS011;10437;48.156;11.530;2023-02-28T06:23:49;13.40;;;7.77;;
20557;SDS011;10437;48.156;11.530;2023-02-28T06:26:17;20.23;;;8.50;;
20557;SDS011;10437;48.156;11.530;2023-02-28T06:28:44;19.30;;;8.57;;
20557;SDS011;10437;48.156;11.530;2023-02-28T06:31:11;20.33;;;8.03;;
20557;SDS011;10437;48.156;11.530;2023-02-28T06:33:40;18.87;;;7.47;;
20557;SDS011;10437;48.156;11.530;2023-02-28T06:36:08;14.00;;;7.83;;
20557;SDS011;10437;48.156;11.530;2023-02-28T06:38:35;19.37;;;8.10;;
20557;SDS011;10437;48.156;11.530;2023-02-28T06:41:03;18.13;;;8.67;;
20557;SDS011;10437;48.156;11.530;2023-02-28T06:43:32;16.73;;;8.07;;
20557;SDS011;10437;48.156;11.530;2023-02-28T06:46:01;18.03;;;9.07;;
20557;SDS011;10437;48.156;11.530;2023-02-28T06:48:30;18.33;;;8.97;;
20557;SDS011;10437;48.156;11.530;2023-02-28T06:51:03;18.67;;;9.63;;
20557;SDS011;10437;48.156;11.530;2023-02-28T06:53:31;19.17;;;8.83;;
20557;SDS011;10437;48.156;11.530;2023-02-28T06:55:58;23.80;;;9.00;;
20557;SDS011;10437;48.156;11.530;2023-02-28T06:58:25;18.83;;;8.57;;
20557;SDS011;10437;48.156;11.530;2023-02-28T07:01:02;15.50;;;8.07;;
20557;SDS011;10437;48.156;11.530;2023-02-28T07:03:29;17.37;;;8.20;;
20557;SDS011;10437;48.156;11.530;2023-02-28T07:05:56;19.40;;;8.70;;
20557;SDS011;10437;48.156;11.530;2023-02-28T07:08:24;17.40;;;8.60;;
20557;SDS011;10437;48.156;11.530;2023-02-28T07:10:52;23.00;;;10.33;;
20557;SDS011;10437;48.156;11.530;2023-02-28T07:13:19;19.40;;;8.40;;
20557;SDS011;10437;48.156;11.530;2023-02-28T07:15:53;18.57;;;8.60;;
20557;SDS011;10437;48.156;11.530;2023-02-28T07:18:20;20.07;;;9.17;;
20557;SDS011;10437;48.156;11.530;2023-02-28T07:20:48;21.33;;;9.20;;
20557;SDS011;10437;48.156;11.530;2023-02-28T07:23:15;19.10;;;9.40;;
20557;SDS011;10437;48.156;11.530;2023-02-28T07:25:42;17.17;;;8.43;;
20557;SDS011;10437;48.156;11.530;2023-02-28T07:28:10;20.50;;;9.50;;
20557;SDS011;10437;48.156;11.530;2023-02-28T07:30:37;25.30;;;9.40;;
20557;SDS011;10437;48.156;11.530;2023-02-28T07:33:06;23.43;;;9.50;;
20557;SDS011;10437;48.156;11.530;2023-02-28T07:35:33;17.57;;;8.53;;
20557;SDS011;10437;48.156;11.530;2023-02-28T07:38:00;21.57;;;9.50;;
20557;SDS011;10437;48.156;11.530;2023-02-28T07:40:28;18.83;;;9.40;;
20557;SDS011;10437;48.156;11.530;2023-02-28T07:42:55;21.83;;;9.70;;
20557;SDS011;10437;48.156;11.530;2023-02-28T07:45:23;24.37;;;9.77;;
20557;SDS011;10437;48.156;11.530;2023-02-28T07:47:50;22.13;;;9.67;;
20557;SDS011;10437;48.156;11.530;2023-02-28T07:50:18;21.50;;;9.70;;
20557;SDS011;10437;48.156;11.530;2023-02-28T07:52:45;19.77;;;9.60;;
20557;SDS011;10437;48.156;11.530;2023-02-28T07:55:12;18.40;;;9.63;;
20557;SDS011;10437;48.156;11.530;2023-02-28T07:57:41;20.00;;;9.60;;
20557;SDS011;10437;48.156;11.530;2023-02-28T08:00:10;23.23;;;9.23;;
20557;SDS011;10437;48.156;11.530;2023-02-28T08:02:38;21.83;;;11.00;;
20557;SDS011;10437;48.156;11.530;2023-02-28T08:05:06;20.30;;;10.83;;
20557;SDS011;10437;48.156;11.530;2023-02-28T08:07:35;19.33;;;9.73;;
20557;SDS011;10437;48.156;11.530;2023-02-28T08:10:01;22.47;;;11.53;;
20557;SDS011;10437;48.156;11.530;2023-02-28T08:12:30;22.00;;;10.03;;
20557;SDS011;10437;48.156;11.530;2023-02-28T08:14:57;20.03;;;9.60;;
20557;SDS011;10437;48.156;11.530;2023-02-28T08:17:25;22.30;;;9.93;;
20557;SDS011;10437;48.156;11.530;2023-02-28T08:19:52;22.63;;;9.83;;
20557;SDS011;10437;48.156;11.530;2023-02-28T08:22:19;22.47;;;10.03;;
20557;SDS011;10437;48.156;11.530;2023-02-28T08:24:48;21.07;;;10.30;;
20557;SDS011;10437;48.156;11.530;2023-02-28T08:27:15;21.67;;;10.00;;
20557;SDS011;10437;48.156;11.530;2023-02-28T08:29:42;22.83;;;9.90;;
20557;SDS011;10437;48.156;11.530;2023-02-28T08:32:09;20.70;;;9.83;;
20557;SDS011;10437;48.156;11.530;2023-02-28T08:34:38;22.13;;;10.60;;
20557;SDS011;10437;48.156;11.530;2023-02-28T08:37:05;23.67;;;10.10;;
20557;SDS011;10437;48.156;11.530;2023-02-28T08:39:33;20.80;;;10.23;;
20557;SDS011;10437;48.156;11.530;2023-02-28T08:42:02;23.10;;;10.53;;
20557;SDS011;10437;48.156;11.530;2023-02-28T08:44:29;19.10;;;9.43;;
20557;SDS011;10437;48.156;11.530;2023-02-28T08:46:56;21.90;;;10.20;;
20557;SDS011;10437;48.156;11.530;2023-02-28T08:49:23;20.80;;;8.90;;
20557;SDS011;10437;48.156;11.530;2023-02-28T08:51:51;21.80;;;9.80;;
20557;SDS011;10437;48.156;11.530;2023-02-28T08:54:19;23.10;;;10.63;;
20557;SDS011;10437;48.156;11.530;2023-02-28T08:56:46;17.43;;;9.87;;
20557;SDS011;10437;48.156;11.530;2023-02-28T08:59:15;22.00;;;10.57;;
20557;SDS011;10437;48.156;11.530;2023-02-28T09:01:42;20.53;;;10.60;;
20557;SDS011;10437;48.156;11.530;2023-02-28T09:04:09;18.30;;;9.57;;
20557;SDS011;10437;48.156;11.530;2023-02-28T09:06:37;21.77;;;10.37;;
20557;SDS011;10437;48.156;11.530;2023-02-28T09:09:04;20.27;;;10.73;;
20557;SDS011;10437;48.156;11.530;2023-02-28T09:11:32;20.73;;;10.10;;
20557;SDS011;10437;48.156;11.530;2023-02-28T09:13:59;20.77;;;9.97;;
20557;SDS011;10437;48.156;11.530;2023-02-28T09:16:29;21.70;;;9.90;;
20557;SDS011;10437;48.156;11.530;2023-02-28T09:18:57;21.40;;;10.70;;
20557;SDS011;10437;48.156;11.530;2023-02-28T09:21:24;19.63;;;9.97;;
20557;SDS011;10437;48.156;11.530;2023-02-28T09:23:51;18.43;;;9.83;;
20557;SDS011;10437;48.156;11.530;2023-02-28T09:26:19;19.73;;;10.27;;
20557;SDS011;10437;48.156;11.530;2023-02-28T09:28:48;19.27;;;10.27;;
20557;SDS011;10437;48.156;11.530;2023-02-28T09:31:16;20.00;;;10.47;;
20557;SDS011;10437;48.156;11.530;2023-02-28T09:33:47;20.63;;;10.37;;
20557;SDS011;10437;48.156;11.530;2023-02-28T09:36:14;23.13;;;10.13;;
20557;SDS011;10437;48.156;11.530;2023-02-28T09:38:41;21.07;;;9.57;;
20557;SDS011;10437;48.156;11.530;2023-02-28T09:41:12;21.87;;;10.03;;
20557;SDS011;10437;48.156;11.530;2023-02-28T09:43:41;21.07;;;10.53;;
20557;SDS011;10437;48.156;11.530;2023-02-28T09:46:14;21.40;;;10.63;;
20557;SDS011;10437;48.156;11.530;2023-02-28T09:48:55;21.60;;;9.83;;
20557;SDS011;10437;48.156;11.530;2023-02-28T09:51:27;18.47;;;10.23;;
20557;SDS011;10437;48.156;11.530;2023-02-28T09:53:54;22.13;;;10.27;;
20557;SDS011;10437;48.156;11.530;2023-02-28T09:56:22;21.40;;;10.97;;
20557;SDS011;10437;48.156;11.530;2023-02-28T09:58:53;19.57;;;10.20;;
20557;SDS011;10437;48.156;11.530;2023-02-28T10:01:23;23.13;;;11.07;;
20557;SDS011;10437;48.156;11.530;2023-02-28T10:03:54;18.20;;;9.90;;
20557;SDS011;10437;48.156;11.530;2023-02-28T10:06:26;21.33;;;10.83;;
20557;SDS011;10437;48.156;11.530;2023-02-28T10:08:56;24.63;;;11.03;;
20557;SDS011;10437;48.156;11.530;2023-02-28T10:11:25;19.40;;;10.00;;
20557;SDS011;10437;48.156;11.530;2023-02-28T10:13:53;20.00;;;10.13;;
20557;SDS011;10437;48.156;11.530;2023-02-28T10:16:27;22.77;;;10.80;;
20557;SDS011;10437;48.156;11.530;2023-02-28T10:18:56;26.17;;;10.50;;
20557;SDS011;10437;48.156;11.530;2023-02-28T10:21:30;21.53;;;10.00;;
20557;SDS011;10437;48.156;11.530;2023-02-28T10:24:05;25.27;;;10.37;;
20557;SDS011;10437;48.156;11.530;2023-02-28T10:26:38;17.70;;;10.13;;
20557;SDS011;10437;48.156;11.530;2023-02-28T10:29:07;24.73;;;10.93;;
20557;SDS011;10437;48.156;11.530;2023-02-28T10:31:34;22.23;;;11.30;;
20557;SDS011;10437;48.156;11.530;2023-02-28T10:34:01;24.80;;;10.33;;
20557;SDS011;10437;48.156;11.530;2023-02-28T10:36:32;26.47;;;11.13;;
20557;SDS011;10437;48.156;11.530;2023-02-28T10:38:59;19.13;;;10.13;;
20557;SDS011;10437;48.156;11.530;2023-02-28T10:41:27;24.90;;;11.10;;
20557;SDS011;10437;48.156;11.530;2023-02-28T10:44:12;22.57;;;10.20;;
20557;SDS011;10437;48.156;11.530;2023-02-28T10:46:41;18.13;;;9.87;;
20557;SDS011;10437;48.156;11.530;2023-02-28T10:49:12;18.03;;;8.73;;
20557;SDS011;10437;48.156;11.530;2023-02-28T10:51:41;20.67;;;9.80;;
20557;SDS011;10437;48.156;11.530;2023-02-28T10:54:14;24.10;;;10.07;;
20557;SDS011;10437;48.156;11.530;2023-02-28T10:56:42;19.07;;;9.73;;
20557;SDS011;10437;48.156;11.530;2023-02-28T10:59:23;19.57;;;10.37;;
20557;SDS011;10437;48.156;11.530;2023-02-28T11:01:52;22.10;;;9.90;;
20557;SDS011;10437;48.156;11.530;2023-02-28T11:04:20;18.13;;;10.00;;
20557;SDS011;10437;48.156;11.530;2023-02-28T11:07:03;19.87;;;8.97;;
20557;SDS011;10437;48.156;11.530;2023-02-28T11:09:32;20.63;;;10.10;;
20557;SDS011;10437;48.156;11.530;2023-02-28T11:12:00;18.83;;;9.63;;
20557;SDS011;10437;48.156;11.530;2023-02-28T11:14:28;19.63;;;9.13;;
20557;SDS011;10437;48.156;11.530;2023-02-28T11:16:57;18.20;;;9.67;;
20557;SDS011;10437;48.156;11.530;2023-02-28T11:19:29;21.47;;;10.17;;
20557;SDS011;10437;48.156;11.530;2023-02-28T11:22:01;21.87;;;10.20;;
20557;SDS011;10437;48.156;11.530;2023-02-28T11:24:30;21.63;;;9.50;;
20557;SDS011;10437;48.156;11.530;2023-02-28T11:27:00;20.97;;;9.73;;
20557;SDS011;10437;48.156;11.530;2023-02-28T11:29:28;19.63;;;9.93;;
20557;SDS011;10437;48.156;11.530;2023-02-28T11:32:03;17.17;;;9.87;;
20557;SDS011;10437;48.156;11.530;2023-02-28T11:34:30;19.47;;;9.40;;
20557;SDS011;10437;48.156;11.530;2023-02-28T11:36:58;17.37;;;9.07;;
20557;SDS011;10437;48.156;11.530;2023-02-28T11:39:31;21.63;;;8.60;;
20557;SDS011;10437;48.156;11.530;2023-02-28T11:42:07;15.17;;;8.10;;
20557;SDS011;10437;48.156;11.530;2023-02-28T11:44:58;15.60;;;8.70;;
20557;SDS011;10437;48.156;11.530;2023-02-28T11:47:44;13.25;;;8.30;;
20557;SDS011;10437;48.156;11.530;2023-02-28T11:50:18;18.52;;;8.45;;
20557;SDS011;10437;48.156;11.530;2023-02-28T11:52:53;16.20;;;8.77;;
20557;SDS011;10437;48.156;11.530;2023-02-28T11:55:23;15.48;;;8.63;;
20557;SDS011;10437;48.156;11.530;2023-02-28T11:58:09;17.92;;;8.93;;
20557;SDS011;10437;48.156;11.530;2023-02-28T12:00:52;14.97;;;8.80;;
20557;SDS011;10437;48.156;11.530;2023-02-28T12:03:26;17.77;;;9.50;;
20557;SDS011;10437;48.156;11.530;2023-02-28T12:06:00;15.93;;;8.97;;
20557;SDS011;10437;48.156;11.530;2023-02-28T12:08:33;14.20;;;8.17;;
20557;SDS011;10437;48.156;11.530;2023-02-28T12:11:09;14.30;;;9.23;;
20557;SDS011;10437;48.156;11.530;2023-02-28T12:13:46;15.60;;;8.43;;
20557;SDS011;10437;48.156;11.530;2023-02-28T12:16:24;15.53;;;8.70;;
20557;SDS011;10437;48.156;11.530;2023-02-28T12:19:04;16.13;;;8.23;;
20557;SDS011;10437;48.156;11.530;2023-02-28T12:21:36;17.07;;;8.50;;
20557;SDS011;10437;48.156;11.530;2023-02-28T12:24:24;16.63;;;8.73;;
20557;SDS011;10437;48.156;11.530;2023-02-28T12:26:54;16.33;;;8.67;;
20557;SDS011;10437;48.156;11.530;2023-02-28T12:29:23;16.50;;;8.83;;
20557;SDS011;10437;48.156;11.530;2023-02-28T12:31:55;13.97;;;7.23;;
20557;SDS011;10437;48.156;11.530;2023-02-28T12:34:27;16.83;;;8.80;;
20557;SDS011;10437;48.156;11.530;2023-02-28T12:36:55;14.60;;;8.10;;
20557;SDS011;10437;48.156;11.530;2023-02-28T12:39:26;14.90;;;8.53;;
20557;SDS011;10437;48.156;11.530;2023-02-28T12:41:59;13.50;;;7.70;;
20557;SDS011;10437;48.156;11.530;2023-02-28T12:44:30;14.90;;;8.33;;
20557;SDS011;10437;48.156;11.530;2023-02-28T12:46:58;23.77;;;8.47;;
20557;SDS011;10437;48.156;11.530;2023-02-28T12:49:27;13.43;;;7.73;;
20557;SDS011;10437;48.156;11.530;2023-02-28T12:51:56;16.47;;;8.73;;
20557;SDS011;10437;48.156;11.530;2023-02-28T12:54:26;15.27;;;8.63;;
20557;SDS011;10437;48.156;11.530;2023-02-28T12:57:00;14.83;;;7.07;;
20557;SDS011;10437;48.156;11.530;2023-02-28T12:59:31;14.60;;;7.83;;
20557;SDS011;10437;48.156;11.530;2023-02-28T13:05:15;13.43;;;7.87;;
20557;SDS011;10437;48.156;11.530;2023-02-28T13:07:58;15.30;;;7.70;;
20557;SDS011;10437;48.156;11.530;2023-02-28T13:10:44;16.20;;;8.03;;
20557;SDS011;10437;48.156;11.530;2023-02-28T13:13:15;14.90;;;7.57;;
20557;SDS011;10437;48.156;11.530;2023-02-28T13:15:56;17.10;;;7.30;;
20557;SDS011;10437;48.156;11.530;2023-02-28T13:18:27;18.73;;;9.10;;
20557;SDS011;10437;48.156;11.530;2023-02-28T13:20:55;14.80;;;7.87;;
20557;SDS011;10437;48.156;11.530;2023-02-28T13:26:23;15.63;;;8.23;;
20557;SDS011;10437;48.156;11.530;2023-02-28T13:29:30;13.83;;;8.03;;
20557;SDS011;10437;48.156;11.530;2023-02-28T13:34:46;17.67;;;8.40;;
20557;SDS011;10437;48.156;11.530;2023-02-28T13:37:33;13.60;;;7.70;;
20557;SDS011;10437;48.156;11.530;2023-02-28T13:40:06;17.67;;;8.07;;
20557;SDS011;10437;48.156;11.530;2023-02-28T13:42:35;13.10;;;8.00;;
20557;SDS011;10437;48.156;11.530;2023-02-28T13:45:26;14.90;;;8.27;;
20557;SDS011;10437;48.156;11.530;2023-02-28T13:47:56;14.50;;;8.13;;
20557;SDS011;10437;48.156;11.530;2023-02-28T13:50:30;18.43;;;8.17;;
20557;SDS011;10437;48.156;11.530;2023-02-28T13:53:06;13.33;;;7.47;;
20557;SDS011;10437;48.156;11.530;2023-02-28T13:55:42;17.27;;;8.17;;
20557;SDS011;10437;48.156;11.530;2023-02-28T13:58:18;15.73;;;8.30;;
20557;SDS011;10437;48.156;11.530;2023-02-28T14:01:04;12.10;;;7.47;;
20557;SDS011;10437;48.156;11.530;2023-02-28T14:06:17;14.07;;;8.30;;
20557;SDS011;10437;48.156;11.530;2023-02-28T14:08:52;14.30;;;7.93;;
20557;SDS011;10437;48.156;11.530;2023-02-28T14:11:24;16.53;;;7.77;;
20557;SDS011;10437;48.156;11.530;2023-02-28T14:13:51;18.10;;;8.40;;
20557;SDS011;10437;48.156;11.530;2023-02-28T14:16:21;15.63;;;7.57;;
20557;SDS011;10437;48.156;11.530;2023-02-28T14:18:54;18.67;;;8.43;;
20557;SDS011;10437;48.156;11.530;2023-02-28T14:21:23;14.73;;;8.83;;
20557;SDS011;10437;48.156;11.530;2023-02-28T14:26:44;14.07;;;7.90;;
20557;SDS011;10437;48.156;11.530;2023-02-28T14:29:38;15.83;;;8.47;;
20557;SDS011;10437;48.156;11.530;2023-02-28T14:32:13;14.80;;;7.87;;
20557;SDS011;10437;48.156;11.530;2023-02-28T14:34:49;14.43;;;7.77;;
20557;SDS011;10437;48.156;11.530;2023-02-28T14:37:19;13.80;;;7.63;;
20557;SDS011;10437;48.156;11.530;2023-02-28T14:39:51;15.00;;;8.17;;
20557;SDS011;10437;48.156;11.530;2023-02-28T14:42:27;16.67;;;8.23;;
20557;SDS011;10437;48.156;11.530;2023-02-28T14:44:54;14.80;;;7.63;;
20557;SDS011;10437;48.156;11.530;2023-02-28T14:47:23;12.70;;;7.50;;
20557;SDS011;10437;48.156;11.530;2023-02-28T14:49:53;15.13;;;8.67;;
20557;SDS011;10437;48.156;11.530;2023-02-28T14:52:21;15.97;;;7.70;;
20557;SDS011;10437;48.156;11.530;2023-02-28T14:54:51;17.60;;;7.83;;
20557;SDS011;10437;48.156;11.530;2023-02-28T14:57:20;13.87;;;7.83;;
20557;SDS011;10437;48.156;11.530;2023-02-28T14:59:56;17.40;;;7.77;;